createdAt,value
2019-05-23T00:02:38.735Z,8.90
2019-05-23T00:05:38.099Z,8.90
2019-05-23T00:11:30.298Z,8.60
2019-05-23T00:14:56.309Z,8.60
2019-05-23T00:17:34.580Z,8.40
2019-05-23T00:20:35.550Z,8.40
2019-05-23T00:23:07.283Z,8.20
2019-05-23T00:25:40.896Z,8.10
2019-05-23T00:28:14.844Z,8.10
2019-05-23T00:31:04.929Z,8.10
2019-05-23T00:33:37.334Z,8.10
2019-05-23T00:36:13.586Z,8.00
2019-05-23T00:38:45.366Z,8.00
2019-05-23T00:41:21.088Z,7.90
2019-05-23T00:43:53.052Z,8.50
2019-05-23T00:46:36.791Z,7.90
2019-05-23T00:49:05.733Z,7.90
2019-05-23T00:51:41.912Z,7.90
2019-05-23T00:54:19.532Z,7.80
2019-05-23T00:56:54.390Z,7.80
2019-05-23T00:59:27.569Z,7.80
2019-05-23T01:01:58.117Z,7.80
2019-05-23T01:04:37.119Z,7.00
2019-05-23T01:07:08.662Z,7.70
2019-05-23T01:09:38.057Z,7.80
2019-05-23T01:15:47.192Z,7.80
2019-05-23T01:18:18.239Z,7.80
2019-05-23T01:21:02.992Z,7.80
2019-05-23T01:29:43.404Z,7.50
2019-05-23T01:32:22.238Z,7.80
2019-05-23T01:35:20.826Z,7.90
2019-05-23T01:41:03.667Z,7.90
2019-05-23T01:43:34.815Z,7.80
2019-05-23T01:46:04.692Z,7.70
2019-05-23T01:48:36.096Z,7.70
2019-05-23T01:51:07.562Z,7.70
2019-05-23T01:53:44.871Z,7.70
2019-05-23T01:56:22.821Z,7.60
2019-05-23T01:58:50.455Z,7.60
2019-05-23T02:01:21.240Z,7.70
2019-05-23T02:03:50.817Z,7.70
2019-05-23T02:06:18.589Z,7.80
2019-05-23T02:08:49.292Z,7.80
2019-05-23T02:11:22.952Z,7.80
2019-05-23T02:13:55.478Z,7.80
2019-05-23T02:16:25.185Z,7.70
2019-05-23T02:18:58.438Z,7.70
2019-05-23T02:21:30.427Z,7.70
2019-05-23T02:24:04.547Z,8.50
2019-05-23T02:26:32.035Z,7.60
2019-05-23T02:29:00.107Z,7.40
2019-05-23T02:31:33.632Z,7.40
2019-05-23T02:34:03.620Z,8.20
2019-05-23T02:36:32.900Z,7.30
2019-05-23T02:39:30.704Z,7.20
2019-05-23T02:44:53.296Z,7.20
2019-05-23T02:47:41.261Z,7.20
2019-05-23T02:50:13.717Z,7.10
2019-05-23T02:52:52.017Z,7.10
2019-05-23T02:55:38.498Z,7.00
2019-05-23T02:58:17.515Z,6.80
2019-05-23T03:01:17.593Z,7.00
2019-05-23T03:03:46.157Z,6.90
2019-05-23T03:06:23.309Z,7.00
2019-05-23T03:08:56.217Z,7.00
2019-05-23T03:11:42.630Z,7.00
2019-05-23T03:14:13.355Z,6.40
2019-05-23T03:16:47.588Z,7.10
2019-05-23T03:19:32.132Z,7.20
2019-05-23T03:22:22.205Z,7.20
2019-05-23T03:24:51.335Z,7.20
2019-05-23T03:27:24.658Z,7.30
2019-05-23T03:29:57.336Z,7.20
2019-05-23T03:32:51.061Z,7.20
2019-05-23T03:35:39.888Z,7.20
2019-05-23T03:38:15.750Z,7.20
2019-05-23T03:40:43.667Z,7.30
2019-05-23T03:44:06.744Z,7.40
2019-05-23T03:46:58.150Z,7.40
2019-05-23T03:49:30.511Z,7.40
2019-05-23T03:52:11.173Z,7.50
2019-05-23T03:54:46.281Z,7.60
2019-05-23T03:57:25.607Z,7.60
2019-05-23T03:59:59.720Z,7.70
2019-05-23T04:02:34.095Z,7.50
2019-05-23T04:05:06.143Z,7.70
2019-05-23T04:07:38.738Z,7.90
2019-05-23T04:10:08.937Z,8.00
2019-05-23T04:12:41.432Z,8.00
2019-05-23T04:15:15.504Z,8.20
2019-05-23T04:17:45.542Z,8.30
2019-05-23T04:20:24.337Z,8.40
2019-05-23T04:22:58.522Z,8.70
2019-05-23T04:25:31.980Z,8.70
2019-05-23T04:28:04.511Z,8.90
2019-05-23T04:30:37.452Z,9.70
2019-05-23T04:33:08.142Z,10.50
2019-05-23T04:35:41.714Z,9.50
2019-05-23T04:38:35.810Z,9.70
2019-05-23T04:41:04.659Z,10.00
2019-05-23T04:43:35.400Z,10.20
2019-05-23T04:46:06.240Z,10.20
2019-05-23T04:48:38.331Z,10.30
2019-05-23T04:51:12.635Z,11.30
2019-05-23T04:53:45.987Z,10.50
2019-05-23T04:56:39.269Z,10.60
2019-05-23T04:59:11.232Z,10.70
2019-05-23T05:01:46.700Z,10.70
2019-05-23T05:04:19.248Z,10.60
2019-05-23T05:06:59.850Z,10.60
2019-05-23T05:09:56.425Z,10.80
2019-05-23T05:12:32.163Z,10.90
2019-05-23T05:15:04.774Z,10.90
2019-05-23T05:17:36.292Z,10.90
2019-05-23T05:26:06.738Z,10.80
2019-05-23T05:28:38.615Z,10.90
2019-05-23T05:31:37.358Z,10.90
2019-05-23T05:34:07.618Z,10.90
2019-05-23T05:36:42.633Z,11.10
2019-05-23T05:39:16.934Z,11.10
2019-05-23T05:41:49.789Z,11.20
2019-05-23T05:44:27.805Z,11.20
2019-05-23T05:47:01.454Z,11.20
2019-05-23T05:49:41.962Z,12.50
2019-05-23T05:52:22.782Z,11.50
2019-05-23T05:55:16.783Z,11.70
2019-05-23T06:00:59.434Z,11.50
2019-05-23T06:03:54.901Z,11.40
2019-05-23T06:06:50.244Z,11.40
2019-05-23T06:09:32.033Z,11.70
2019-05-23T06:12:06.349Z,11.80
2019-05-23T06:14:39.500Z,11.70
2019-05-23T06:17:19.442Z,11.80
2019-05-23T06:20:23.228Z,11.70
2019-05-23T06:23:02.969Z,11.80
2019-05-23T06:25:48.893Z,12.50
2019-05-23T06:28:40.913Z,11.90
2019-05-23T06:31:29.155Z,12.00
2019-05-23T06:34:00.586Z,13.10
2019-05-23T06:37:02.923Z,12.00
2019-05-23T06:39:33.168Z,11.90
2019-05-23T06:42:05.162Z,11.90
2019-05-23T06:44:42.232Z,12.50
2019-05-23T06:47:17.041Z,12.10
2019-05-23T06:52:52.249Z,12.60
2019-05-23T06:56:19.898Z,12.30
2019-05-23T06:58:55.316Z,12.80
2019-05-23T07:01:33.273Z,12.40
2019-05-23T07:04:18.812Z,13.20
2019-05-23T07:06:53.567Z,12.50
2019-05-23T07:09:24.185Z,12.60
2019-05-23T07:12:02.206Z,12.60
2019-05-23T07:14:53.265Z,12.60
2019-05-23T07:17:36.279Z,12.50
2019-05-23T07:20:14.550Z,12.40
2019-05-23T07:22:42.793Z,12.40
2019-05-23T07:25:57.681Z,12.30
2019-05-23T07:28:32.103Z,12.30
2019-05-23T07:31:18.262Z,12.30
2019-05-23T07:34:04.750Z,12.50
2019-05-23T07:36:36.221Z,12.50
2019-05-23T07:39:11.983Z,11.60
2019-05-23T07:41:43.750Z,12.60
2019-05-23T07:44:48.231Z,12.80
2019-05-23T07:47:19.583Z,12.90
2019-05-23T07:50:03.193Z,13.10
2019-05-23T07:52:33.745Z,13.00
2019-05-23T07:55:55.078Z,13.00
2019-05-23T07:58:27.575Z,13.10
2019-05-23T08:01:20.553Z,13.20
2019-05-23T08:03:56.069Z,13.30
2019-05-23T08:06:49.338Z,13.50
2019-05-23T08:09:22.000Z,13.60
2019-05-23T08:12:15.370Z,13.70
2019-05-23T08:14:54.261Z,13.60
2019-05-23T08:20:36.926Z,13.70
2019-05-23T08:26:06.972Z,14.60
2019-05-23T08:28:56.666Z,15.50
2019-05-23T08:31:26.663Z,16.10
2019-05-23T08:33:59.493Z,16.60
2019-05-23T08:36:32.919Z,16.90
2019-05-23T08:39:14.289Z,17.40
2019-05-23T08:41:56.927Z,17.70
2019-05-23T08:45:21.792Z,17.70
2019-05-23T08:48:09.401Z,18.10
2019-05-23T08:51:27.099Z,18.40
2019-05-23T08:53:59.669Z,18.60
2019-05-23T08:56:46.568Z,19.20
2019-05-23T08:59:31.675Z,19.40
2019-05-23T09:02:03.982Z,20.10
2019-05-23T09:05:04.249Z,21.20
2019-05-23T09:07:35.113Z,21.70
2019-05-23T09:10:08.927Z,21.20
2019-05-23T09:12:42.081Z,20.70
2019-05-23T09:15:16.105Z,20.60
2019-05-23T09:17:54.362Z,20.90
2019-05-23T09:21:08.150Z,20.80
2019-05-23T09:23:47.364Z,20.30
2019-05-23T09:26:23.075Z,21.20
2019-05-23T09:29:06.252Z,21.10
2019-05-23T09:31:59.442Z,20.90
2019-05-23T09:34:27.500Z,21.50
2019-05-23T09:37:21.527Z,22.00
2019-05-23T09:40:00.601Z,22.10
2019-05-23T09:42:35.610Z,22.10
2019-05-23T09:45:18.244Z,22.00
2019-05-23T09:51:00.888Z,21.80
2019-05-23T09:53:58.670Z,21.70
2019-05-23T09:56:39.216Z,21.80
2019-05-23T09:59:13.414Z,20.70
2019-05-23T10:01:48.091Z,20.40
2019-05-23T10:04:57.895Z,19.90
2019-05-23T10:08:11.080Z,20.40
2019-05-23T10:17:39.204Z,21.60
2019-05-23T10:20:24.843Z,21.40
2019-05-23T10:23:03.223Z,21.10
2019-05-23T10:25:36.905Z,21.60
2019-05-23T10:28:19.904Z,21.20
2019-05-23T10:30:59.819Z,21.10
2019-05-23T10:33:49.037Z,21.50
2019-05-23T10:36:18.303Z,21.00
2019-05-23T10:39:15.034Z,20.70
2019-05-23T10:41:53.488Z,22.00
2019-05-23T10:44:44.858Z,21.40
2019-05-23T10:47:40.868Z,21.90
2019-05-23T10:50:18.374Z,22.10
2019-05-23T10:53:06.039Z,22.30
2019-05-23T10:55:37.657Z,20.50
2019-05-23T10:58:32.865Z,20.80
2019-05-23T11:01:25.146Z,23.40
2019-05-23T11:04:09.806Z,23.20
2019-05-23T11:06:40.403Z,23.20
2019-05-23T11:09:43.044Z,23.10
2019-05-23T11:15:11.294Z,24.10
2019-05-23T11:17:53.020Z,24.40
2019-05-23T11:20:41.843Z,23.90
2019-05-23T11:23:29.175Z,24.40
2019-05-23T11:26:04.410Z,25.00
2019-05-23T11:28:45.811Z,24.10
2019-05-23T11:31:42.386Z,25.40
2019-05-23T11:34:13.673Z,25.40
2019-05-23T11:36:56.007Z,25.40
2019-05-23T11:39:49.688Z,24.50
2019-05-23T11:45:25.625Z,23.00
2019-05-23T11:47:57.638Z,22.80
2019-05-23T11:50:43.196Z,23.30
2019-05-23T11:53:45.467Z,23.80
2019-05-23T11:56:25.423Z,23.90
2019-05-23T11:59:00.947Z,24.50
2019-05-23T12:01:51.250Z,24.20
2019-05-23T12:04:52.878Z,23.60
2019-05-23T12:07:31.139Z,23.70
2019-05-23T12:10:01.102Z,23.70
2019-05-23T12:12:35.915Z,23.70
2019-05-23T12:15:15.023Z,24.60
2019-05-23T12:21:11.818Z,25.30
2019-05-23T12:24:09.676Z,24.10
2019-05-23T12:26:53.536Z,24.00
2019-05-23T12:29:50.652Z,24.90
2019-05-23T12:32:44.285Z,23.60
2019-05-23T12:35:30.977Z,23.00
2019-05-23T12:38:09.616Z,22.80
2019-05-23T12:40:44.342Z,24.30
2019-05-23T12:49:12.783Z,25.00
2019-05-23T12:57:37.323Z,24.50
2019-05-23T13:00:25.758Z,25.10
2019-05-23T13:03:07.719Z,25.50
2019-05-23T13:05:58.220Z,25.20
2019-05-23T13:08:43.660Z,26.10
2019-05-23T13:11:31.906Z,26.50
2019-05-23T13:14:03.821Z,25.70
2019-05-23T13:16:46.016Z,25.70
2019-05-23T13:19:20.408Z,25.50
2019-05-23T13:21:51.473Z,26.00
2019-05-23T13:25:03.835Z,26.50
2019-05-23T13:27:51.983Z,24.90
2019-05-23T13:30:26.013Z,24.10
2019-05-23T13:32:58.501Z,26.80
2019-05-23T13:35:31.262Z,25.80
2019-05-23T13:38:00.691Z,26.30
2019-05-23T13:40:31.944Z,26.30
2019-05-23T13:43:09.133Z,26.00
2019-05-23T13:46:04.222Z,25.90
2019-05-23T13:48:52.975Z,25.60
2019-05-23T13:54:14.141Z,27.00
2019-05-23T13:56:47.491Z,27.20
2019-05-23T13:59:16.525Z,27.50
2019-05-23T14:01:51.841Z,25.90
2019-05-23T14:04:24.911Z,25.60
2019-05-23T14:10:55.849Z,25.70
2019-05-23T14:13:30.278Z,25.90
2019-05-23T14:16:24.370Z,25.90
2019-05-23T14:19:10.203Z,26.40
2019-05-23T14:21:48.191Z,27.20
2019-05-23T14:24:19.545Z,27.90
2019-05-23T14:27:08.978Z,26.40
2019-05-23T14:29:45.211Z,25.50
2019-05-23T14:32:25.514Z,25.20
2019-05-23T14:34:53.217Z,24.70
2019-05-23T14:37:28.635Z,24.00
2019-05-23T14:40:20.017Z,23.60
2019-05-23T14:43:31.657Z,23.60
2019-05-23T14:46:08.780Z,23.90
2019-05-23T14:48:59.809Z,24.70
2019-05-23T14:51:54.082Z,24.40
2019-05-23T14:54:33.029Z,24.10
2019-05-23T14:57:08.899Z,23.50
2019-05-23T14:59:48.435Z,24.50
2019-05-23T15:02:27.742Z,23.90
2019-05-23T15:05:00.832Z,23.60
2019-05-23T15:07:45.081Z,23.70
2019-05-23T15:10:56.168Z,24.30
2019-05-23T15:13:38.498Z,24.30
2019-05-23T15:16:25.421Z,25.30
2019-05-23T15:19:07.636Z,25.50
2019-05-23T15:21:36.765Z,25.90
2019-05-23T15:24:11.981Z,26.50
2019-05-23T15:30:05.519Z,26.70
2019-05-23T15:32:38.062Z,26.10
2019-05-23T15:35:13.589Z,25.20
2019-05-23T15:37:45.595Z,25.70
2019-05-23T15:40:20.605Z,25.90
2019-05-23T15:42:58.803Z,25.90
2019-05-23T15:45:31.626Z,25.40
2019-05-23T15:48:28.383Z,25.30
2019-05-23T15:50:59.910Z,25.20
2019-05-23T15:54:06.967Z,24.40
2019-05-23T15:56:48.028Z,23.90
2019-05-23T15:59:29.207Z,23.30
2019-05-23T16:02:10.914Z,24.40
2019-05-23T16:04:52.550Z,22.70
2019-05-23T16:07:36.209Z,22.30
2019-05-23T16:10:10.391Z,22.30
2019-05-23T16:12:44.467Z,23.60
2019-05-23T16:15:17.312Z,22.80
2019-05-23T16:18:27.399Z,24.30
2019-05-23T16:24:08.351Z,26.70
2019-05-23T16:27:21.533Z,26.30
2019-05-23T16:30:29.439Z,26.60
2019-05-23T16:33:01.684Z,26.30
2019-05-23T16:35:37.773Z,25.40
2019-05-23T16:38:44.589Z,25.90
2019-05-23T16:46:09.242Z,26.70
2019-05-23T16:49:23.918Z,26.50
2019-05-23T16:58:55.828Z,25.00
2019-05-23T17:01:56.002Z,24.70
2019-05-23T17:05:16.397Z,24.80
2019-05-23T17:09:10.402Z,25.00
2019-05-23T17:12:30.936Z,24.40
2019-05-23T17:19:38.819Z,22.10
2019-05-23T17:25:27.767Z,22.40
2019-05-23T17:28:54.982Z,22.40
2019-05-23T17:31:51.055Z,22.50
2019-05-23T17:38:18.603Z,22.90
2019-05-23T17:45:17.917Z,21.50
2019-05-23T17:48:14.525Z,20.50
2019-05-23T17:51:33.472Z,21.50
2019-05-23T18:01:09.507Z,20.80
2019-05-23T18:04:20.845Z,21.50
2019-05-23T18:07:01.097Z,20.50
2019-05-23T18:10:14.499Z,20.30
2019-05-23T18:13:00.482Z,20.10
2019-05-23T18:15:48.235Z,19.80
2019-05-23T18:18:21.861Z,19.70
2019-05-23T18:24:21.498Z,19.40
2019-05-23T18:26:52.031Z,19.20
2019-05-23T18:29:36.866Z,19.00
2019-05-23T18:32:41.621Z,19.50
2019-05-23T18:35:40.703Z,19.00
2019-05-23T18:38:10.171Z,18.00
2019-05-23T18:41:08.713Z,19.80
2019-05-23T18:43:34.498Z,20.30
2019-05-23T18:46:12.774Z,20.70
2019-05-23T18:48:50.587Z,19.50
2019-05-23T18:51:29.146Z,20.30
2019-05-23T18:56:51.176Z,19.40
2019-05-23T18:59:40.011Z,19.10
2019-05-23T19:02:14.667Z,18.90
2019-05-23T19:04:44.496Z,18.70
2019-05-23T19:07:27.402Z,18.50
2019-05-23T19:13:30.657Z,17.80
2019-05-23T19:16:49.657Z,18.00
2019-05-23T19:19:25.195Z,17.80
2019-05-23T19:22:09.287Z,18.30
2019-05-23T19:24:59.767Z,17.60
2019-05-23T19:28:14.820Z,17.60
2019-05-23T19:31:07.694Z,17.40
2019-05-23T19:39:46.672Z,17.50
2019-05-23T19:42:20.566Z,16.60
2019-05-23T19:55:15.428Z,15.80
2019-05-23T19:58:32.763Z,15.80
2019-05-23T20:11:19.997Z,15.30
2019-05-23T20:14:03.178Z,15.30
2019-05-23T20:20:58.932Z,14.90
2019-05-23T20:27:01.386Z,15.20
2019-05-23T20:33:18.944Z,14.90
2019-05-23T20:36:25.353Z,14.70
2019-05-23T20:42:43.182Z,14.30
2019-05-23T20:45:52.139Z,14.10
2019-05-23T20:55:19.288Z,13.90
2019-05-23T20:58:25.245Z,13.30
2019-05-23T21:01:43.878Z,13.90
2019-05-23T21:08:24.681Z,13.80
2019-05-23T21:11:17.244Z,13.60
2019-05-23T21:14:07.226Z,13.50
2019-05-23T21:17:08.407Z,13.60
2019-05-23T21:20:06.556Z,13.50
2019-05-23T21:26:21.137Z,13.40
2019-05-23T21:32:17.132Z,12.90
2019-05-23T21:34:56.526Z,13.30
2019-05-23T21:37:54.961Z,13.20
2019-05-23T21:40:41.860Z,13.20
2019-05-23T21:46:51.207Z,13.20
2019-05-23T21:49:30.743Z,13.10
2019-05-23T21:52:42.434Z,13.00
2019-05-23T21:58:23.033Z,13.00
2019-05-23T22:05:18.503Z,12.30
2019-05-23T22:08:42.669Z,13.00
2019-05-23T22:11:43.872Z,12.90
2019-05-23T22:15:14.179Z,12.90
2019-05-23T22:22:17.726Z,12.80
2019-05-23T22:35:32.760Z,12.70
2019-05-23T22:41:57.601Z,12.50
2019-05-23T22:44:51.599Z,12.30
2019-05-23T22:47:31.735Z,12.20
2019-05-23T22:53:14.297Z,12.10
2019-05-23T22:58:55.530Z,12.20
2019-05-23T23:01:43.782Z,12.20
2019-05-23T23:04:32.488Z,12.10
2019-05-23T23:07:07.715Z,12.10
2019-05-23T23:09:52.003Z,12.00
2019-05-23T23:12:44.794Z,12.00
2019-05-23T23:18:22.596Z,11.90
2019-05-23T23:20:55.490Z,11.50
2019-05-23T23:23:55.940Z,11.70
2019-05-23T23:26:25.371Z,10.70
2019-05-23T23:29:00.851Z,11.80
2019-05-23T23:31:47.613Z,11.80
2019-05-23T23:34:27.121Z,11.80
2019-05-23T23:37:12.313Z,11.80
2019-05-23T23:39:44.522Z,11.90
2019-05-23T23:42:30.990Z,11.90
2019-05-23T23:45:37.938Z,11.70
2019-05-23T23:48:31.258Z,11.70
2019-05-23T23:51:25.887Z,11.50
2019-05-23T23:54:12.734Z,11.50
2019-05-23T23:59:56.197Z,11.60
